Time;durP1;ratioP1;P1;durP2;ratioP2;P2;SDS_P1;SDS_P2;PMS_P1;PMS_P2;Temp;Humidity;BMP_temperature;BMP_pressure;BME280_temperature;BME280_humidity;BME280_pressure;Samples;Min_cycle;Max_cycle;Signal;HPM_P1;HPM_P2
2021/01/13 00:02:08;;;;;;;23.70;13.63;;;1.50;60.90;;;;;;5077378;28;20036;-48
2021/01/13 00:04:34;;;;;;;21.92;14.02;;;1.50;60.80;;;;;;5077200;28;20115;-49
2021/01/13 00:07:00;;;;;;;23.77;13.20;;;1.60;60.90;;;;;;5077645;28;20094;-48
2021/01/13 00:09:26;;;;;;;32.67;18.48;;;1.50;60.80;;;;;;5076808;28;20034;-48
2021/01/13 00:11:58;;;;;;;31.05;14.13;;;1.50;60.90;;;;;;5077754;28;20027;-48
2021/01/13 00:14:25;;;;;;;18.77;12.02;;;1.50;60.90;;;;;;5077050;28;20082;-48
2021/01/13 00:16:51;;;;;;;21.10;13.82;;;1.50;60.80;;;;;;5077217;28;20032;-49
2021/01/13 00:19:17;;;;;;;28.45;14.40;;;1.50;60.90;;;;;;5077243;28;20399;-48
2021/01/13 00:21:51;;;;;;;21.65;13.05;;;1.50;61.10;;;;;;5077183;28;20071;-48
2021/01/13 00:24:20;;;;;;;23.60;12.77;;;1.50;61.40;;;;;;5076635;28;20085;-48
2021/01/13 00:26:47;;;;;;;21.63;13.27;;;1.50;61.10;;;;;;5076900;28;20032;-48
2021/01/13 00:29:22;;;;;;;22.00;12.10;;;1.50;61.20;;;;;;5077007;28;20024;-48
2021/01/13 00:31:47;;;;;;;23.38;12.50;;;1.60;61.20;;;;;;5076691;28;20177;-48
2021/01/13 00:34:15;;;;;;;24.95;12.63;;;1.50;61.20;;;;;;5076491;28;20119;-48
2021/01/13 00:36:41;;;;;;;20.13;12.50;;;1.60;61.20;;;;;;5077335;28;20319;-49
2021/01/13 00:39:07;;;;;;;21.58;12.23;;;1.60;61.30;;;;;;5076072;28;20028;-49
2021/01/13 00:41:37;;;;;;;19.95;12.43;;;1.60;61.80;;;;;;5077138;28;20033;-49
2021/01/13 00:44:03;;;;;;;23.85;14.35;;;1.60;61.20;;;;;;5076018;28;20024;-48
2021/01/13 00:46:36;;;;;;;21.98;12.23;;;1.60;61.20;;;;;;5076754;28;20020;-48
2021/01/13 00:49:02;;;;;;;26.95;14.45;;;1.50;61.40;;;;;;5076726;28;20028;-50
2021/01/13 00:51:34;;;;;;;21.48;12.77;;;1.60;61.50;;;;;;5077159;28;20421;-48
2021/01/13 00:54:00;;;;;;;24.27;14.10;;;1.60;61.70;;;;;;5076111;28;20040;-48
2021/01/13 00:56:26;;;;;;;20.58;12.88;;;1.60;61.60;;;;;;5088599;28;20329;-49
2021/01/13 00:58:51;;;;;;;31.13;14.43;;;1.60;61.50;;;;;;5097050;28;20032;-49
2021/01/13 01:01:17;;;;;;;22.70;12.48;;;1.50;61.40;;;;;;5096440;28;20366;-48
2021/01/13 01:03:43;;;;;;;22.50;12.85;;;1.50;61.50;;;;;;5096991;28;20024;-49
2021/01/13 01:06:12;;;;;;;22.92;13.13;;;1.50;61.50;;;;;;5096954;28;20024;-49
2021/01/13 01:08:37;;;;;;;20.25;12.77;;;1.50;61.50;;;;;;5096375;28;20441;-49
2021/01/13 01:11:05;;;;;;;22.13;13.20;;;1.50;61.60;;;;;;5096641;28;20032;-49
2021/01/13 01:13:31;;;;;;;27.33;13.48;;;1.50;61.60;;;;;;5096321;28;20371;-48
2021/01/13 01:15:56;;;;;;;26.98;14.50;;;1.50;61.70;;;;;;5095794;28;20016;-48
2021/01/13 01:18:22;;;;;;;19.17;12.32;;;1.50;61.80;;;;;;5095958;28;20073;-48
2021/01/13 01:20:48;;;;;;;21.33;12.93;;;1.50;61.80;;;;;;5095845;28;20052;-48
2021/01/13 01:23:13;;;;;;;24.42;14.30;;;1.40;61.70;;;;;;5096161;28;20056;-50
2021/01/13 01:25:39;;;;;;;23.35;12.98;;;1.40;61.90;;;;;;5092309;28;20035;-49
2021/01/13 01:28:06;;;;;;;26.10;14.27;;;1.40;61.90;;;;;;5092178;28;20543;-49
2021/01/13 01:30:32;;;;;;;22.45;15.43;;;1.40;61.90;;;;;;5094722;28;20031;-48
2021/01/13 01:32:58;;;;;;;23.95;13.52;;;1.40;61.90;;;;;;5096431;28;20117;-49
2021/01/13 01:35:24;;;;;;;27.00;14.70;;;1.40;62.00;;;;;;5095412;28;20024;-48
2021/01/13 01:37:50;;;;;;;25.88;13.45;;;1.40;61.90;;;;;;5095788;28;20058;-49
2021/01/13 01:40:18;;;;;;;23.23;12.10;;;1.40;61.90;;;;;;5095617;28;20028;-49
2021/01/13 01:42:52;;;;;;;26.77;14.82;;;1.40;62.00;;;;;;5095966;28;20024;-48
2021/01/13 01:45:28;;;;;;;25.05;14.77;;;1.30;62.10;;;;;;5095501;28;20114;-49
2021/01/13 01:48:21;;;;;;;24.60;14.45;;;1.40;62.20;;;;;;5096043;28;20349;-48
2021/01/13 01:50:48;;;;;;;25.30;14.95;;;1.40;62.30;;;;;;5095904;28;20027;-49
2021/01/13 01:53:13;;;;;;;22.35;12.77;;;1.40;62.30;;;;;;5095415;28;20036;-48
2021/01/13 01:56:17;;;;;;;24.77;14.95;;;1.40;62.20;;;;;;5095636;28;20420;-48
2021/01/13 01:58:48;;;;;;;24.83;13.95;;;1.40;62.30;;;;;;5095988;28;20024;-48
2021/01/13 02:01:14;;;;;;;;;;;1.40;62.30;;;;;;5093922;28;20374;-49
2021/01/13 02:04:06;;;;;;;21.00;12.45;;;1.40;62.30;;;;;;5082151;28;20365;-49
2021/01/13 02:06:33;;;;;;;24.70;15.68;;;1.40;62.30;;;;;;5076955;28;20020;-49
2021/01/13 02:08:59;;;;;;;22.92;14.77;;;1.30;62.40;;;;;;5075650;28;20365;-48
2021/01/13 02:11:27;;;;;;;29.60;15.57;;;1.30;62.60;;;;;;5086821;28;20044;-48
2021/01/13 02:13:53;;;;;;;26.52;14.85;;;1.30;62.70;;;;;;5074388;28;20302;-49
2021/01/13 02:16:20;;;;;;;25.88;15.50;;;1.40;62.70;;;;;;5074646;28;20119;-48
2021/01/13 02:18:49;;;;;;;25.17;14.60;;;1.40;62.70;;;;;;5073806;28;20037;-48
2021/01/13 02:21:20;;;;;;;22.52;14.45;;;1.40;62.70;;;;;;5073593;28;20052;-48
2021/01/13 02:24:05;;;;;;;25.83;15.15;;;1.40;62.60;;;;;;5073258;28;20131;-49
2021/01/13 02:27:12;;;;;;;28.30;15.07;;;1.40;62.30;;;;;;5075182;28;20031;-47
2021/01/13 02:29:43;;;;;;;24.63;14.85;;;1.40;62.10;;;;;;5069171;28;20035;-47
2021/01/13 02:32:12;;;;;;;24.13;13.25;;;1.40;62.10;;;;;;5071331;28;20083;-48
2021/01/13 02:34:46;;;;;;;26.30;14.45;;;1.40;62.10;;;;;;5082340;28;20122;-47
2021/01/13 02:37:26;;;;;;;24.38;14.48;;;1.40;62.10;;;;;;5092975;28;20059;-46
2021/01/13 02:39:54;;;;;;;26.98;15.65;;;1.40;62.30;;;;;;5092747;28;20406;-48
2021/01/13 02:42:28;;;;;;;23.90;15.35;;;1.40;62.40;;;;;;5093980;28;20077;-47
2021/01/13 02:45:14;;;;;;;28.30;14.43;;;1.40;62.40;;;;;;5094487;28;20424;-48
2021/01/13 02:47:58;;;;;;;27.02;16.08;;;1.40;62.40;;;;;;5093546;28;20561;-47
2021/01/13 02:50:27;;;;;;;48.75;21.10;;;1.40;62.40;;;;;;5092946;28;20020;-47
2021/01/13 02:53:13;;;;;;;27.42;16.75;;;1.40;62.60;;;;;;5093739;28;20429;-52
2021/01/13 02:56:11;;;;;;;30.23;16.38;;;1.40;63.20;;;;;;5093343;28;20026;-47
2021/01/13 02:58:38;;;;;;;30.40;15.70;;;1.40;62.70;;;;;;5092824;28;20434;-50
2021/01/13 03:01:09;;;;;;;27.67;15.13;;;1.50;62.80;;;;;;5093234;28;20077;-47
2021/01/13 03:03:36;;;;;;;29.13;16.65;;;1.50;62.70;;;;;;5095322;28;20393;-48
2021/01/13 03:06:07;;;;;;;29.70;16.52;;;1.50;62.70;;;;;;5095397;28;20054;-48
2021/01/13 03:09:03;;;;;;;24.02;14.30;;;1.60;62.60;;;;;;5098712;28;20028;-48
2021/01/13 03:11:30;;;;;;;26.40;15.30;;;1.60;62.40;;;;;;5099457;28;20410;-47
2021/01/13 03:14:06;;;;;;;26.63;15.23;;;1.60;62.30;;;;;;5098271;28;20093;-47
2021/01/13 03:16:39;;;;;;;30.23;15.15;;;1.60;62.10;;;;;;5099288;28;20309;-47
2021/01/13 03:19:13;;;;;;;27.50;15.75;;;1.60;62.10;;;;;;5098110;28;20028;-48
2021/01/13 03:21:51;;;;;;;36.80;17.58;;;1.60;62.20;;;;;;5097304;28;20063;-48
2021/01/13 03:24:28;;;;;;;27.58;16.27;;;1.60;62.30;;;;;;5097801;28;20077;-47
2021/01/13 03:26:55;;;;;;;30.85;15.93;;;1.50;62.40;;;;;;5099267;28;20057;-47
2021/01/13 03:29:22;;;;;;;30.58;17.80;;;1.50;62.70;;;;;;5097565;28;20024;-46
2021/01/13 03:32:04;;;;;;;28.80;15.88;;;1.50;62.90;;;;;;5098192;28;20330;-47
2021/01/13 03:34:31;;;;;;;31.23;17.75;;;1.50;63.00;;;;;;5098106;28;20097;-47
2021/01/13 03:37:07;;;;;;;33.53;16.25;;;1.50;62.90;;;;;;5097867;28;20024;-47
2021/01/13 03:39:38;;;;;;;28.65;16.55;;;1.60;62.90;;;;;;5096194;28;20392;-47
2021/01/13 03:42:32;;;;;;;28.63;15.85;;;1.50;62.80;;;;;;5098673;28;20070;-47
2021/01/13 03:45:01;;;;;;;31.80;16.45;;;1.50;62.80;;;;;;5094592;28;20418;-47
2021/01/13 03:47:30;;;;;;;28.63;15.40;;;1.50;63.50;;;;;;5098062;28;20497;-47
2021/01/13 03:50:08;;;;;;;29.85;17.02;;;1.50;63.00;;;;;;5097457;28;20028;-47
2021/01/13 03:52:40;;;;;;;31.65;16.98;;;1.50;62.90;;;;;;5098322;28;20070;-49
2021/01/13 03:55:07;;;;;;;30.30;17.00;;;1.50;62.90;;;;;;5097346;28;20453;-47
2021/01/13 03:58:05;;;;;;;27.95;16.80;;;1.40;62.60;;;;;;5097669;28;20501;-47
2021/01/13 04:00:48;;;;;;;32.28;16.65;;;1.40;62.60;;;;;;5097884;28;20050;-47
2021/01/13 04:03:22;;;;;;;27.88;16.00;;;1.40;62.60;;;;;;5098408;28;20024;-47
2021/01/13 04:06:07;;;;;;;29.15;16.80;;;1.40;62.60;;;;;;5097683;28;20418;-48
2021/01/13 04:08:47;;;;;;;29.05;17.02;;;1.40;62.70;;;;;;5097903;28;20059;-47
2021/01/13 04:11:18;;;;;;;27.85;16.60;;;1.40;62.60;;;;;;5097850;28;20145;-48
2021/01/13 04:13:49;;;;;;;23.83;14.55;;;1.40;62.70;;;;;;5097265;28;20054;-48
2021/01/13 04:16:17;;;;;;;27.63;16.05;;;1.40;62.70;;;;;;5097815;28;20035;-47
2021/01/13 04:18:45;;;;;;;30.48;17.65;;;1.40;62.70;;;;;;5095614;28;20047;-47
2021/01/13 04:21:14;;;;;;;28.75;16.45;;;1.30;62.80;;;;;;5095611;28;20389;-47
2021/01/13 04:23:41;;;;;;;24.08;13.55;;;1.30;62.80;;;;;;5096251;28;20042;-47
2021/01/13 04:26:07;;;;;;;27.35;17.05;;;1.40;63.00;;;;;;5096116;28;20028;-48
2021/01/13 04:28:34;;;;;;;25.13;15.55;;;1.40;63.00;;;;;;5095019;28;20427;-48
2021/01/13 04:31:00;;;;;;;28.00;16.35;;;1.40;63.00;;;;;;5095924;28;20434;-48
2021/01/13 04:33:26;;;;;;;32.38;18.05;;;1.40;63.00;;;;;;5095446;28;20043;-47
2021/01/13 04:35:53;;;;;;;31.50;18.15;;;1.50;63.00;;;;;;5095241;28;20028;-49
2021/01/13 04:38:27;;;;;;;29.00;16.25;;;1.50;62.90;;;;;;5096004;28;20074;-47
2021/01/13 04:41:19;;;;;;;30.75;18.67;;;1.50;62.80;;;;;;5097085;28;20469;-50
2021/01/13 04:44:00;;;;;;;30.08;16.00;;;1.50;62.80;;;;;;5096485;28;20113;-50
2021/01/13 04:46:25;;;;;;;32.13;17.50;;;1.50;62.90;;;;;;5097412;28;20452;-47
2021/01/13 04:48:58;;;;;;;31.90;17.83;;;1.40;62.80;;;;;;5096581;28;20126;-48
2021/01/13 04:51:24;;;;;;;29.13;17.83;;;1.40;62.70;;;;;;5096678;28;20031;-50
2021/01/13 04:53:51;;;;;;;41.47;22.42;;;1.40;63.00;;;;;;5096611;28;20040;-47
2021/01/13 04:56:18;;;;;;;28.25;16.35;;;1.40;63.10;;;;;;5095754;28;20406;-48
2021/01/13 04:59:23;;;;;;;31.98;18.15;;;1.40;63.20;;;;;;5096115;28;20114;-47
2021/01/13 05:02:10;;;;;;;27.60;16.67;;;1.40;63.40;;;;;;5096798;28;20103;-49
2021/01/13 05:04:45;;;;;;;30.05;16.60;;;1.40;63.50;;;;;;5095867;28;20038;-48
2021/01/13 05:07:35;;;;;;;32.17;18.30;;;1.40;63.60;;;;;;5096951;28;20043;-48
2021/01/13 05:10:11;;;;;;;33.42;17.05;;;1.30;64.00;;;;;;5076650;28;20028;-47
2021/01/13 05:12:46;;;;;;;33.42;18.17;;;1.30;64.10;;;;;;5096405;28;20070;-47
2021/01/13 05:15:32;;;;;;;41.00;20.63;;;1.20;64.80;;;;;;5096249;28;20118;-48
2021/01/13 05:18:16;;;;;;;34.70;20.13;;;1.20;65.00;;;;;;5096780;28;20372;-47
2021/01/13 05:20:43;;;;;;;38.00;21.27;;;1.20;65.30;;;;;;5095230;28;20044;-47
2021/01/13 05:23:11;;;;;;;35.08;19.55;;;1.10;65.50;;;;;;5096590;28;20028;-48
2021/01/13 05:25:49;;;;;;;36.13;20.65;;;1.10;65.80;;;;;;5079837;28;20028;-47
2021/01/13 05:28:25;;;;;;;34.20;19.67;;;1.00;65.90;;;;;;5075492;28;20068;-47
2021/01/13 05:30:59;;;;;;;39.85;22.85;;;1.00;66.50;;;;;;5075337;28;20047;-47
2021/01/13 05:33:32;;;;;;;41.70;22.67;;;0.90;66.60;;;;;;5075658;28;20048;-48
2021/01/13 05:36:05;;;;;;;41.45;23.63;;;0.90;66.90;;;;;;5076356;28;20107;-47
2021/01/13 05:39:01;;;;;;;39.70;21.73;;;0.90;67.30;;;;;;5075760;28;20024;-48
2021/01/13 05:41:27;;;;;;;44.05;22.70;;;0.80;67.50;;;;;;5075718;28;20021;-47
2021/01/13 05:43:53;;;;;;;40.83;22.33;;;0.80;67.40;;;;;;5075600;28;20495;-49
2021/01/13 05:46:20;;;;;;;35.65;19.98;;;0.80;67.90;;;;;;5076385;28;20020;-48
2021/01/13 05:48:50;;;;;;;41.95;22.75;;;0.80;68.10;;;;;;5075254;28;20062;-48
2021/01/13 05:51:26;;;;;;;37.65;21.08;;;0.70;68.40;;;;;;5075639;28;20031;-50
2021/01/13 05:53:52;;;;;;;41.30;21.45;;;0.70;68.60;;;;;;5073882;28;20044;-48
2021/01/13 05:56:18;;;;;;;44.03;22.13;;;0.80;68.70;;;;;;5074876;28;20017;-47
2021/01/13 05:58:44;;;;;;;41.38;21.98;;;0.80;68.90;;;;;;5074833;28;20036;-47
2021/01/13 06:01:41;;;;;;;41.88;22.30;;;0.80;68.60;;;;;;5074700;28;20425;-50
2021/01/13 06:04:08;;;;;;;31.20;16.88;;;0.70;68.70;;;;;;5073416;28;20025;-48
2021/01/13 06:06:36;;;;;;;38.05;19.00;;;0.70;68.80;;;;;;5073974;28;20334;-50
2021/01/13 06:09:05;;;;;;;44.55;21.63;;;0.70;69.00;;;;;;5075231;28;20028;-48
2021/01/13 06:11:36;;;;;;;37.50;20.35;;;0.70;69.10;;;;;;5074917;28;20024;-48
2021/01/13 06:14:06;;;;;;;35.67;20.23;;;0.60;69.10;;;;;;5073552;28;20055;-47
2021/01/13 06:16:32;;;;;;;37.78;19.10;;;0.60;69.30;;;;;;5073172;28;20354;-48
2021/01/13 06:18:58;;;;;;;35.75;18.23;;;0.70;69.30;;;;;;5072505;28;20123;-52
2021/01/13 06:21:24;;;;;;;39.17;19.50;;;0.70;69.40;;;;;;5072367;28;20056;-48
2021/01/13 06:23:52;;;;;;;32.60;18.73;;;0.70;69.40;;;;;;5073504;28;20429;-49
2021/01/13 06:26:19;;;;;;;37.05;18.40;;;0.70;69.30;;;;;;5073727;28;20387;-52
2021/01/13 06:29:06;;;;;;;29.05;16.77;;;0.60;69.40;;;;;;5072755;28;20091;-49
2021/01/13 06:31:43;;;;;;;31.20;17.23;;;0.70;69.40;;;;;;5072790;28;20702;-47
2021/01/13 06:34:30;;;;;;;33.53;17.30;;;0.60;69.30;;;;;;5071553;28;20044;-48
2021/01/13 06:37:34;;;;;;;29.55;16.70;;;0.60;69.40;;;;;;5073839;28;20043;-48
2021/01/13 06:40:11;;;;;;;32.03;16.15;;;0.60;69.60;;;;;;5050756;28;20040;-49
2021/01/13 06:42:36;;;;;;;30.98;15.80;;;0.60;69.80;;;;;;5076981;28;20085;-48
2021/01/13 06:45:02;;;;;;;34.75;18.33;;;0.60;69.90;;;;;;5077064;28;20414;-48
2021/01/13 06:47:28;;;;;;;30.15;16.73;;;0.60;70.00;;;;;;5078080;28;20053;-48
2021/01/13 06:49:54;;;;;;;28.63;15.43;;;0.60;70.10;;;;;;5077648;28;20338;-50
2021/01/13 06:52:33;;;;;;;26.77;15.10;;;0.60;70.20;;;;;;5085191;28;20024;-50
2021/01/13 06:55:00;;;;;;;27.52;14.48;;;0.60;70.10;;;;;;5094114;28;20028;-50
2021/01/13 06:57:30;;;;;;;30.52;16.40;;;0.60;70.00;;;;;;5096604;28;20028;-49
2021/01/13 06:59:57;;;;;;;27.48;14.80;;;0.60;70.30;;;;;;5097217;28;20103;-50
2021/01/13 07:02:34;;;;;;;30.90;15.60;;;0.60;70.40;;;;;;5096193;28;20028;-49
2021/01/13 07:05:00;;;;;;;38.88;20.15;;;0.60;70.50;;;;;;5096353;28;20031;-51
2021/01/13 07:07:28;;;;;;;28.63;15.15;;;0.60;70.40;;;;;;5097096;28;20031;-48
2021/01/13 07:09:54;;;;;;;27.48;14.38;;;0.60;70.60;;;;;;5096064;28;20033;-49
2021/01/13 07:12:23;;;;;;;27.02;14.10;;;0.60;70.50;;;;;;5098071;28;20335;-47
2021/01/13 07:14:51;;;;;;;24.20;14.10;;;0.60;70.60;;;;;;5098245;28;20028;-48
2021/01/13 07:17:24;;;;;;;23.20;13.25;;;0.70;70.90;;;;;;5098103;28;20035;-47
2021/01/13 07:19:56;;;;;;;24.27;13.85;;;0.70;71.10;;;;;;5096226;28;20101;-48
2021/01/13 07:22:24;;;;;;;24.67;15.35;;;0.70;70.90;;;;;;5098424;28;20028;-49
2021/01/13 07:24:51;;;;;;;22.48;13.43;;;0.80;70.90;;;;;;5096207;28;20042;-47
2021/01/13 07:27:17;;;;;;;26.92;14.40;;;0.70;70.80;;;;;;5099392;28;20035;-48
2021/01/13 07:29:43;;;;;;;20.85;12.75;;;0.80;70.80;;;;;;5097481;28;20020;-47
2021/01/13 07:32:11;;;;;;;28.13;15.05;;;0.80;70.80;;;;;;5096738;28;20028;-51
2021/01/13 07:34:42;;;;;;;19.80;12.18;;;0.80;70.70;;;;;;5096568;28;20039;-47
2021/01/13 07:37:19;;;;;;;23.23;14.07;;;0.80;70.70;;;;;;5094771;28;20039;-47
2021/01/13 07:40:24;;;;;;;19.98;11.65;;;0.80;70.60;;;;;;5094299;28;20345;-49
2021/01/13 07:43:03;;;;;;;21.77;11.88;;;0.80;70.50;;;;;;5096244;28;20062;-47
2021/01/13 07:45:30;;;;;;;23.48;13.93;;;0.70;70.40;;;;;;5095874;28;20020;-49
2021/01/13 07:47:55;;;;;;;25.17;13.55;;;0.60;70.30;;;;;;5095582;28;20057;-47
2021/01/13 07:50:21;;;;;;;21.00;12.13;;;0.60;70.30;;;;;;5097811;28;20024;-47
2021/01/13 07:52:49;;;;;;;22.50;12.45;;;0.60;70.50;;;;;;5097256;28;20524;-51
2021/01/13 07:55:22;;;;;;;23.20;13.50;;;0.50;70.60;;;;;;5096061;28;20111;-48
2021/01/13 07:57:52;;;;;;;23.10;13.00;;;0.50;70.60;;;;;;5098135;28;20055;-47
2021/01/13 08:00:31;;;;;;;25.95;14.57;;;0.50;71.00;;;;;;5097294;28;20101;-48
2021/01/13 08:03:34;;;;;;;20.60;12.15;;;0.60;71.30;;;;;;5097247;28;20081;-49
2021/01/13 08:06:28;;;;;;;18.80;10.55;;;0.60;71.10;;;;;;5096727;28;20092;-47
2021/01/13 08:09:15;;;;;;;26.65;15.15;;;0.60;71.10;;;;;;5097240;28;20592;-48
2021/01/13 08:12:08;;;;;;;19.38;11.65;;;0.60;71.20;;;;;;5096998;28;20130;-51
2021/01/13 08:14:52;;;;;;;24.00;11.70;;;0.60;71.30;;;;;;5096944;28;20042;-48
2021/01/13 08:18:01;;;;;;;19.60;11.43;;;0.60;71.40;;;;;;5096599;28;20031;-47
2021/01/13 08:21:01;;;;;;;18.52;11.35;;;0.70;71.40;;;;;;5096382;28;20048;-47
2021/01/13 08:23:41;;;;;;;16.07;9.33;;;0.70;71.00;;;;;;5097571;28;20036;-51
2021/01/13 08:26:08;;;;;;;19.08;11.55;;;0.70;71.10;;;;;;5097177;28;20024;-50
2021/01/13 08:28:42;;;;;;;15.30;8.77;;;0.70;71.10;;;;;;5096458;28;20119;-45
2021/01/13 08:31:08;;;;;;;16.15;9.73;;;0.80;71.20;;;;;;5094432;28;20413;-48
2021/01/13 08:33:37;;;;;;;14.55;8.65;;;0.80;71.00;;;;;;5096172;28;20170;-48
2021/01/13 08:36:10;;;;;;;18.80;11.75;;;0.80;71.10;;;;;;5096642;28;20022;-48
2021/01/13 08:38:37;;;;;;;13.65;8.90;;;0.90;71.30;;;;;;5075322;28;20431;-47
2021/01/13 08:41:22;;;;;;;14.63;9.45;;;0.90;71.10;;;;;;5075145;28;20052;-47
2021/01/13 08:44:03;;;;;;;12.10;8.55;;;1.00;71.20;;;;;;5075816;28;20056;-48
2021/01/13 08:46:37;;;;;;;;;;;1.00;71.00;;;;;;5076571;28;20059;-48
2021/01/13 08:49:05;;;;;;;13.13;8.35;;;1.00;70.70;;;;;;5076291;28;19916;-48
2021/01/13 08:51:31;;;;;;;14.77;8.90;;;1.00;70.70;;;;;;5076740;28;20321;-48
2021/01/13 08:54:17;;;;;;;13.48;8.73;;;1.00;70.70;;;;;;5075280;28;20051;-48
2021/01/13 08:57:13;;;;;;;12.75;8.30;;;1.00;70.90;;;;;;5087087;28;20084;-48
2021/01/13 08:59:44;;;;;;;16.50;9.18;;;1.10;71.10;;;;;;5082951;28;20063;-51
2021/01/13 09:02:14;;;;;;;12.30;7.85;;;1.10;71.30;;;;;;5096444;28;20032;-47
2021/01/13 09:04:48;;;;;;;14.65;8.10;;;1.10;71.50;;;;;;5095829;28;20016;-49
2021/01/13 09:07:18;;;;;;;13.05;8.30;;;1.20;71.20;;;;;;5096597;28;20538;-49
2021/01/13 09:10:04;;;;;;;12.32;8.25;;;1.20;70.60;;;;;;5095305;28;20120;-47
2021/01/13 09:12:45;;;;;;;11.60;7.55;;;1.20;70.50;;;;;;5096086;28;20028;-49
2021/01/13 09:15:18;;;;;;;14.38;8.85;;;1.30;70.30;;;;;;5096529;28;20035;-50
2021/01/13 09:17:48;;;;;;;13.20;8.57;;;1.30;70.30;;;;;;5096858;28;20028;-49
2021/01/13 09:20:43;;;;;;;14.20;9.00;;;1.30;70.30;;;;;;5096014;28;20055;-46
2021/01/13 09:23:23;;;;;;;12.38;7.70;;;1.20;69.90;;;;;;5076684;28;20425;-44
2021/01/13 09:25:58;;;;;;;13.25;7.60;;;1.20;69.80;;;;;;5095117;28;20027;-51
2021/01/13 09:28:27;;;;;;;13.00;7.97;;;1.20;70.10;;;;;;5094950;28;20039;-49
2021/01/13 09:30:53;;;;;;;12.20;8.05;;;1.20;70.10;;;;;;5095868;28;20110;-51
2021/01/13 09:33:19;;;;;;;13.05;7.68;;;1.20;70.20;;;;;;5097744;28;20415;-51
2021/01/13 09:35:58;;;;;;;10.15;6.72;;;1.20;70.40;;;;;;5094571;28;20059;-50
2021/01/13 09:38:36;;;;;;;11.32;7.30;;;1.20;70.60;;;;;;5092325;28;20081;-52
2021/01/13 09:41:07;;;;;;;15.68;8.75;;;1.30;70.50;;;;;;5093725;28;20028;-45
2021/01/13 09:43:37;;;;;;;11.20;6.65;;;1.30;70.60;;;;;;5097040;28;20027;-48
2021/01/13 09:46:05;;;;;;;10.10;6.85;;;1.30;70.40;;;;;;5095806;28;20438;-45
2021/01/13 09:48:34;;;;;;;11.93;6.90;;;1.30;70.10;;;;;;5093965;28;20437;-47
2021/01/13 09:51:04;;;;;;;19.85;12.00;;;1.40;70.20;;;;;;5094387;28;20031;-45
2021/01/13 09:53:53;;;;;;;12.88;7.72;;;1.30;70.10;;;;;;5094023;28;20379;-44
2021/01/13 09:56:20;;;;;;;13.10;7.43;;;1.40;69.80;;;;;;5091387;28;20418;-45
2021/01/13 09:58:51;;;;;;;15.18;9.13;;;1.30;69.60;;;;;;5093820;28;20114;-48
2021/01/13 10:01:21;;;;;;;13.23;8.02;;;1.40;69.70;;;;;;5093772;28;20024;-46
2021/01/13 10:03:49;;;;;;;12.77;8.00;;;1.40;70.00;;;;;;5093084;28;20520;-44
2021/01/13 10:06:32;;;;;;;12.02;7.95;;;1.40;70.00;;;;;;5094978;28;20054;-44
2021/01/13 10:09:07;;;;;;;18.10;10.27;;;1.40;69.80;;;;;;5085023;28;20028;-46
2021/01/13 10:11:33;;;;;;;11.23;7.53;;;1.50;70.00;;;;;;5088027;28;20054;-48
2021/01/13 10:14:01;;;;;;;10.88;6.95;;;1.50;70.10;;;;;;5094747;28;20455;-45
2021/01/13 10:16:28;;;;;;;15.07;9.30;;;1.50;69.90;;;;;;5094498;28;20024;-48
2021/01/13 10:19:02;;;;;;;10.93;6.97;;;1.50;69.70;;;;;;5098663;28;20031;-45
2021/01/13 10:21:34;;;;;;;10.68;6.93;;;1.60;69.40;;;;;;5098872;28;20059;-46
2021/01/13 10:24:04;;;;;;;9.32;6.78;;;1.60;69.20;;;;;;5094810;28;20028;-45
2021/01/13 10:26:39;;;;;;;10.07;6.70;;;1.60;68.60;;;;;;5093022;28;20067;-45
2021/01/13 10:29:08;;;;;;;10.32;7.00;;;1.50;68.50;;;;;;5097730;28;20028;-45
2021/01/13 10:31:35;;;;;;;9.80;6.43;;;1.50;68.40;;;;;;5098720;28;20042;-44
2021/01/13 10:34:02;;;;;;;9.98;6.35;;;1.50;68.30;;;;;;5098993;28;20039;-44
2021/01/13 10:36:32;;;;;;;12.13;6.82;;;1.40;68.10;;;;;;5095190;28;20028;-45
2021/01/13 10:39:12;;;;;;;10.55;6.50;;;1.40;68.20;;;;;;5093864;28;20081;-43
2021/01/13 10:41:40;;;;;;;9.50;6.18;;;1.30;68.20;;;;;;5097340;28;20044;-44
2021/01/13 10:44:28;;;;;;;11.70;6.70;;;1.30;68.10;;;;;;5096404;28;20053;-44
2021/01/13 10:47:04;;;;;;;11.95;6.63;;;1.20;68.00;;;;;;5097650;28;20032;-44
2021/01/13 10:49:34;;;;;;;10.25;6.57;;;1.20;68.30;;;;;;5097092;28;20019;-43
2021/01/13 10:52:02;;;;;;;14.43;8.88;;;1.20;68.70;;;;;;5097199;28;20032;-44
2021/01/13 10:54:33;;;;;;;11.02;7.00;;;1.20;68.70;;;;;;5097046;28;20067;-45
2021/01/13 10:57:10;;;;;;;11.10;6.30;;;1.20;68.70;;;;;;5098557;28;20090;-44
2021/01/13 10:59:37;;;;;;;9.18;6.38;;;1.20;68.30;;;;;;5097726;28;20047;-43
2021/01/13 11:02:08;;;;;;;10.10;6.35;;;1.20;68.10;;;;;;5098606;28;20020;-43
2021/01/13 11:04:41;;;;;;;11.38;6.68;;;1.10;68.10;;;;;;5097194;28;20031;-46
2021/01/13 11:07:15;;;;;;;11.32;7.13;;;1.10;68.30;;;;;;5097693;28;20139;-44
2021/01/13 11:09:42;;;;;;;11.60;7.75;;;1.00;68.10;;;;;;5095941;28;20032;-43
2021/01/13 11:12:09;;;;;;;10.60;7.07;;;1.00;68.50;;;;;;5098222;28;20421;-45
2021/01/13 11:14:40;;;;;;;12.23;7.30;;;1.00;68.50;;;;;;5097816;28;20095;-44
2021/01/13 11:17:09;;;;;;;13.43;7.68;;;1.00;68.10;;;;;;5098416;28;20113;-45
2021/01/13 11:19:37;;;;;;;27.77;11.82;;;1.00;68.20;;;;;;5097837;28;20071;-45
2021/01/13 11:22:03;;;;;;;14.48;8.00;;;1.00;68.40;;;;;;5097948;28;20024;-45
2021/01/13 11:24:40;;;;;;;26.17;15.38;;;0.90;68.40;;;;;;5098000;28;20032;-44
2021/01/13 11:27:18;;;;;;;16.70;9.05;;;1.00;68.60;;;;;;5098349;28;20375;-52
2021/01/13 11:29:52;;;;;;;26.05;12.23;;;1.00;68.70;;;;;;5097743;28;20062;-54
2021/01/13 11:32:20;;;;;;;18.63;9.27;;;1.00;68.60;;;;;;5098061;28;20338;-54
2021/01/13 11:34:48;;;;;;;23.65;11.35;;;1.00;68.70;;;;;;5097258;28;20054;-55
2021/01/13 11:37:20;;;;;;;13.25;7.88;;;1.00;68.50;;;;;;5098454;28;20299;-54
2021/01/13 11:40:01;;;;;;;16.55;9.25;;;1.00;68.50;;;;;;5097541;28;20038;-54
2021/01/13 11:42:52;;;;;;;20.03;10.90;;;1.00;68.40;;;;;;5098086;28;20027;-54
2021/01/13 11:45:20;;;;;;;17.45;9.90;;;1.00;68.40;;;;;;5097542;28;20264;-54
2021/01/13 11:47:52;;;;;;;14.50;8.23;;;1.00;68.50;;;;;;5091300;28;20031;-55
2021/01/13 11:50:24;;;;;;;16.13;10.00;;;1.00;68.40;;;;;;5084164;28;20071;-51
2021/01/13 11:52:57;;;;;;;;;;;0.90;68.10;;;;;;5086672;28;20154;-54
2021/01/13 11:55:31;;;;;;;13.73;8.25;;;0.90;67.80;;;;;;5076684;28;20003;-54
2021/01/13 11:57:57;;;;;;;14.63;8.63;;;0.80;67.70;;;;;;5077016;28;20048;-53
2021/01/13 12:00:30;;;;;;;13.88;8.40;;;0.80;68.40;;;;;;5078324;28;20036;-53
2021/01/13 12:02:58;;;;;;;17.88;10.60;;;0.70;68.00;;;;;;5075817;28;20016;-54
2021/01/13 12:05:32;;;;;;;15.73;10.05;;;0.80;68.30;;;;;;5075812;28;20025;-53
2021/01/13 12:08:01;;;;;;;13.70;8.57;;;0.70;68.00;;;;;;5075705;28;20070;-54
2021/01/13 12:10:35;;;;;;;17.90;10.68;;;0.70;68.30;;;;;;5076728;28;20036;-55
2021/01/13 12:13:21;;;;;;;25.15;15.48;;;0.70;68.50;;;;;;5077167;28;20047;-54
2021/01/13 12:15:51;;;;;;;15.65;9.80;;;0.70;68.50;;;;;;5076953;28;20107;-54
2021/01/13 12:18:26;;;;;;;16.00;7.88;;;0.70;68.40;;;;;;5087320;28;20056;-54
2021/01/13 12:20:56;;;;;;;13.85;8.77;;;0.80;68.10;;;;;;5080358;28;20150;-54
2021/01/13 12:23:36;;;;;;;16.70;9.93;;;0.70;68.00;;;;;;5077329;28;20020;-55
2021/01/13 12:26:29;;;;;;;14.30;9.02;;;0.70;68.10;;;;;;5077276;28;20401;-55
2021/01/13 12:29:15;;;;;;;16.67;9.55;;;0.70;68.00;;;;;;5093978;28;20028;-55
2021/01/13 12:31:43;;;;;;;15.32;8.52;;;0.60;67.70;;;;;;5097310;28;20103;-55
2021/01/13 12:34:24;;;;;;;16.92;10.65;;;0.60;67.80;;;;;;5096949;28;20036;-55
2021/01/13 12:37:03;;;;;;;;;;;0.60;68.10;;;;;;5097213;28;20035;-55
2021/01/13 12:39:33;;;;;;;19.30;10.55;;;0.60;68.30;;;;;;5095656;28;19904;-55
2021/01/13 12:42:00;;;;;;;14.75;8.52;;;0.60;68.10;;;;;;5097513;28;20024;-55
2021/01/13 12:44:27;;;;;;;15.65;9.63;;;0.50;68.10;;;;;;5096153;28;20051;-54
2021/01/13 12:46:55;;;;;;;42.85;19.45;;;0.50;68.10;;;;;;5097316;28;20028;-56
2021/01/13 12:49:21;;;;;;;16.50;10.00;;;0.50;68.20;;;;;;5096529;28;20382;-55
2021/01/13 12:52:05;;;;;;;35.55;17.42;;;0.50;68.30;;;;;;5096554;28;20028;-56
2021/01/13 12:54:31;;;;;;;41.10;19.23;;;0.50;68.50;;;;;;5095117;28;20051;-52
2021/01/13 12:56:56;;;;;;;22.15;11.80;;;0.50;68.80;;;;;;5096588;28;20058;-56
2021/01/13 12:59:22;;;;;;;19.15;10.48;;;0.40;68.80;;;;;;5094931;28;20032;-53
2021/01/13 13:01:49;;;;;;;32.20;14.52;;;0.50;69.00;;;;;;5095979;28;20107;-55
2021/01/13 13:04:15;;;;;;;30.08;16.02;;;0.50;69.00;;;;;;5096008;28;20031;-53
2021/01/13 13:06:42;;;;;;;17.98;10.32;;;0.40;69.00;;;;;;5095923;28;20024;-56
2021/01/13 13:09:13;;;;;;;21.88;10.43;;;0.50;69.10;;;;;;5095183;28;20020;-54
2021/01/13 13:11:39;;;;;;;61.92;24.50;;;0.40;69.00;;;;;;5095371;28;20568;-53